Aeroporto :
LOGIN :

Iscrizione | Disclaimer

   EN    FR    IT 

 










Sommario :    VFR   VFR Marginale   IFR   IFR Intensivo   IFR Molto Intensivo
Visibilità : 
Base nubi : 
>= 8 km
>= 3000ft
5 / 8 km
1000 / 3000 ft
1500m / 5 km
500 / 1000 ft
800 / 1500m
200 / 500 ft
< 800m
< 200 ft
Simboli :   Temporali  Nebbia  Neve Forte  Precipitazioni Forti  Vento > 20 kt
SIGMETs :   Varie  Temporali  Ghiacco  Turbolenza  Onda orograficha  Ceneri Vulcaniche






- Altitudine del aeroporto : 751 ft
- Codice IATA : ENC


LFSN - Nancy Essey

ULTIMO METAR :
  • 172330Z AUTO 20005KT 170V230 9999 FEW031 SCT076 OVC240 05/02 Q1024

METARs OBSOLETI :
  • 172300Z AUTO 22005KT 180V250 CAVOK 05/03 Q1024
  • 172230Z AUTO 25003KT CAVOK 06/03 Q1024
  • 172200Z AUTO 25004KT 220V290 CAVOK 06/03 Q1024
  • 172130Z AUTO 21005KT 180V260 9999 FEW030 BKN230 BKN250 06/03 Q1023
  • 172100Z AUTO 23005KT 200V260 CAVOK 07/04 Q1023

Previsioni scadute.



MetMap, La meteo Aeronautica in un colpo d'occhio ! - Copyright ORBIFLY Dicembre 2007 - Disclaimer

ORBIFLY MET'MAP TEAM :

Programmazione e sviluppo : Alexandra Zaïnal
Concezione : Baudouin d'Aumeries
Aiuto per la programmazione : Marc-Olivier Méhu
Supporto tecnico e logistico : Manuel Goepfert
Aiuto per la traduzione : Arnaldo La Scala

Contatto : metmap@orbifly.com




FONTI E CREDITI :

   NOAA